sensor_id;sensor_type;location;lat;lon;timestamp;pressure;altitude;pressure_sealevel;temperature;humidity
9774;BME280;4926;42.670;23.316;2023-11-21T00:00:56;94383.34;;;6.85;100.00
9774;BME280;4926;42.670;23.316;2023-11-21T00:03:24;94388.13;;;6.83;100.00
9774;BME280;4926;42.670;23.316;2023-11-21T00:05:54;94385.22;;;6.69;100.00
9774;BME280;4926;42.670;23.316;2023-11-21T00:08:21;94383.13;;;6.71;100.00
9774;BME280;4926;42.670;23.316;2023-11-21T00:10:50;94388.66;;;6.70;100.00
9774;BME280;4926;42.670;23.316;2023-11-21T00:13:17;94380.75;;;6.45;100.00
9774;BME280;4926;42.670;23.316;2023-11-21T00:15:44;94389.22;;;6.57;100.00
9774;BME280;4926;42.670;23.316;2023-11-21T00:18:11;94390.78;;;6.53;100.00
9774;BME280;4926;42.670;23.316;2023-11-21T00:20:39;94393.69;;;6.56;100.00
9774;BME280;4926;42.670;23.316;2023-11-21T00:23:09;94388.13;;;6.58;100.00
9774;BME280;4926;42.670;23.316;2023-11-21T00:25:36;94381.25;;;6.62;100.00
9774;BME280;4926;42.670;23.316;2023-11-21T00:28:03;94385.50;;;6.63;100.00
9774;BME280;4926;42.670;23.316;2023-11-21T00:30:31;94380.72;;;6.65;100.00
9774;BME280;4926;42.670;23.316;2023-11-21T00:33:00;94374.13;;;6.67;100.00
9774;BME280;4926;42.670;23.316;2023-11-21T00:35:27;94377.03;;;6.71;100.00
9774;BME280;4926;42.670;23.316;2023-11-21T00:37:56;94373.06;;;6.68;100.00
9774;BME280;4926;42.670;23.316;2023-11-21T00:40:25;94373.31;;;6.72;100.00
9774;BME280;4926;42.670;23.316;2023-11-21T00:42:52;94382.03;;;6.82;100.00
9774;BME280;4926;42.670;23.316;2023-11-21T00:45:18;94375.72;;;6.78;100.00
9774;BME280;4926;42.670;23.316;2023-11-21T00:47:45;94373.84;;;6.79;100.00
9774;BME280;4926;42.670;23.316;2023-11-21T00:50:19;94383.63;;;6.73;100.00
9774;BME280;4926;42.670;23.316;2023-11-21T00:52:46;94384.97;;;6.71;100.00
9774;BME280;4926;42.670;23.316;2023-11-21T00:55:13;94382.84;;;6.68;100.00
9774;BME280;4926;42.670;23.316;2023-11-21T00:57:41;94369.09;;;6.66;100.00
9774;BME280;4926;42.670;23.316;2023-11-21T01:00:09;94373.84;;;6.69;100.00
9774;BME280;4926;42.670;23.316;2023-11-21T01:02:42;94364.84;;;6.70;100.00
9774;BME280;4926;42.670;23.316;2023-11-21T01:05:09;94365.13;;;6.68;100.00
9774;BME280;4926;42.670;23.316;2023-11-21T01:07:36;94371.72;;;6.76;100.00
9774;BME280;4926;42.670;23.316;2023-11-21T01:10:03;94371.72;;;6.76;100.00
9774;BME280;4926;42.670;23.316;2023-11-21T01:12:33;94356.91;;;6.65;100.00
9774;BME280;4926;42.670;23.316;2023-11-21T01:15:02;94355.88;;;6.66;100.00
9774;BME280;4926;42.670;23.316;2023-11-21T01:17:29;94349.53;;;6.67;100.00
9774;BME280;4926;42.670;23.316;2023-11-21T01:20:00;94362.22;;;6.65;100.00
9774;BME280;4926;42.670;23.316;2023-11-21T01:22:27;94368.59;;;6.59;100.00
9774;BME280;4926;42.670;23.316;2023-11-21T01:24:54;94365.41;;;6.57;100.00
9774;BME280;4926;42.670;23.316;2023-11-21T01:27:21;94369.66;;;6.63;100.00
9774;BME280;4926;42.670;23.316;2023-11-21T01:29:48;94365.66;;;6.65;100.00
9774;BME280;4926;42.670;23.316;2023-11-21T01:32:16;94363.56;;;6.62;100.00
9774;BME280;4926;42.670;23.316;2023-11-21T01:34:43;94362.78;;;6.32;100.00
9774;BME280;4926;42.670;23.316;2023-11-21T01:37:11;94363.31;;;6.19;100.00
9774;BME280;4926;42.670;23.316;2023-11-21T01:39:39;94365.41;;;6.17;100.00
9774;BME280;4926;42.670;23.316;2023-11-21T01:42:06;94371.75;;;6.11;100.00
9774;BME280;4926;42.670;23.316;2023-11-21T01:44:33;94366.72;;;6.14;100.00
9774;BME280;4926;42.670;23.316;2023-11-21T01:47:05;94370.72;;;6.17;100.00
9774;BME280;4926;42.670;23.316;2023-11-21T01:49:39;94357.22;;;6.08;100.00
9774;BME280;4926;42.670;23.316;2023-11-21T01:52:08;94351.41;;;5.91;100.00
9774;BME280;4926;42.670;23.316;2023-11-21T01:54:37;94348.97;;;5.69;100.00
9774;BME280;4926;42.670;23.316;2023-11-21T01:57:04;94347.66;;;5.82;100.00
9774;BME280;4926;42.670;23.316;2023-11-21T01:59:37;94360.53;;;5.63;100.00
9774;BME280;4926;42.670;23.316;2023-11-21T02:02:05;94362.69;;;5.72;100.00
9774;BME280;4926;42.670;23.316;2023-11-21T02:04:35;94352.13;;;5.82;100.00
9774;BME280;4926;42.670;23.316;2023-11-21T02:07:04;94357.16;;;5.78;100.00
9774;BME280;4926;42.670;23.316;2023-11-21T02:09:31;94363.25;;;5.79;100.00
9774;BME280;4926;42.670;23.316;2023-11-21T02:12:00;94349.22;;;5.73;100.00
9774;BME280;4926;42.670;23.316;2023-11-21T02:14:27;94354.50;;;5.73;100.00
9774;BME280;4926;42.670;23.316;2023-11-21T02:16:54;94357.44;;;5.82;100.00
9774;BME280;4926;42.670;23.316;2023-11-21T02:19:23;94329.94;;;5.72;100.00
9774;BME280;4926;42.670;23.316;2023-11-21T02:21:51;94349.00;;;5.85;100.00
9774;BME280;4926;42.670;23.316;2023-11-21T02:24:21;94343.22;;;5.93;100.00
9774;BME280;4926;42.670;23.316;2023-11-21T02:26:50;94347.44;;;5.89;100.00
9774;BME280;4926;42.670;23.316;2023-11-21T02:29:21;94344.72;;;5.63;100.00
9774;BME280;4926;42.670;23.316;2023-11-21T02:31:53;94356.88;;;5.64;100.00
9774;BME280;4926;42.670;23.316;2023-11-21T02:34:22;94346.22;;;5.39;100.00
9774;BME280;4926;42.670;23.316;2023-11-21T02:36:59;94350.97;;;5.37;100.00
9774;BME280;4926;42.670;23.316;2023-11-21T02:39:27;94344.94;;;5.52;100.00
9774;BME280;4926;42.670;23.316;2023-11-21T02:41:54;94347.06;;;5.55;100.00
9774;BME280;4926;42.670;23.316;2023-11-21T02:44:21;94345.75;;;5.57;100.00
9774;BME280;4926;42.670;23.316;2023-11-21T02:46:47;94351.31;;;5.61;100.00
9774;BME280;4926;42.670;23.316;2023-11-21T02:49:14;94348.88;;;5.44;100.00
9774;BME280;4926;42.670;23.316;2023-11-21T02:51:49;94350.13;;;5.17;100.00
9774;BME280;4926;42.670;23.316;2023-11-21T02:54:20;94349.28;;;5.11;100.00
9774;BME280;4926;42.670;23.316;2023-11-21T02:56:49;94344.03;;;5.11;100.00
9774;BME280;4926;42.670;23.316;2023-11-21T02:59:18;94347.22;;;5.23;100.00
9774;BME280;4926;42.670;23.316;2023-11-21T03:01:45;94346.75;;;5.31;100.00
9774;BME280;4926;42.670;23.316;2023-11-21T03:04:14;94345.03;;;5.00;100.00
9774;BME280;4926;42.670;23.316;2023-11-21T03:06:43;94331.81;;;4.95;100.00
9774;BME280;4926;42.670;23.316;2023-11-21T03:09:12;94334.88;;;4.72;100.00
9774;BME280;4926;42.670;23.316;2023-11-21T03:11:41;94342.50;;;4.69;100.00
9774;BME280;4926;42.670;23.316;2023-11-21T03:14:09;94345.94;;;4.74;100.00
9774;BME280;4926;42.670;23.316;2023-11-21T03:16:36;94332.34;;;4.92;100.00
9774;BME280;4926;42.670;23.316;2023-11-21T03:19:04;94341.72;;;4.73;100.00
9774;BME280;4926;42.670;23.316;2023-11-21T03:21:33;94348.16;;;4.92;100.00
9774;BME280;4926;42.670;23.316;2023-11-21T03:24:01;94358.78;;;5.07;100.00
9774;BME280;4926;42.670;23.316;2023-11-21T03:26:34;94360.38;;;5.13;100.00
9774;BME280;4926;42.670;23.316;2023-11-21T03:29:04;94363.31;;;5.22;100.00
9774;BME280;4926;42.670;23.316;2023-11-21T03:31:32;94359.88;;;5.16;100.00
9774;BME280;4926;42.670;23.316;2023-11-21T03:33:59;94363.59;;;5.20;100.00
9774;BME280;4926;42.670;23.316;2023-11-21T03:36:36;94352.41;;;4.98;100.00
9774;BME280;4926;42.670;23.316;2023-11-21T03:39:03;94355.63;;;5.10;100.00
9774;BME280;4926;42.670;23.316;2023-11-21T03:41:30;94348.13;;;4.82;100.00
9774;BME280;4926;42.670;23.316;2023-11-21T03:43:57;94352.41;;;4.98;100.00
9774;BME280;4926;42.670;23.316;2023-11-21T03:46:25;94344.38;;;4.73;100.00
9774;BME280;4926;42.670;23.316;2023-11-21T03:49:02;94345.50;;;4.87;100.00
9774;BME280;4926;42.670;23.316;2023-11-21T03:51:33;94333.81;;;4.73;100.00
9774;BME280;4926;42.670;23.316;2023-11-21T03:54:02;94328.84;;;4.82;100.00
9774;BME280;4926;42.670;23.316;2023-11-21T03:56:32;94334.06;;;4.67;100.00
9774;BME280;4926;42.670;23.316;2023-11-21T03:58:59;94329.50;;;4.57;100.00
9774;BME280;4926;42.670;23.316;2023-11-21T04:01:26;94333.94;;;4.46;100.00
9774;BME280;4926;42.670;23.316;2023-11-21T04:03:54;94333.81;;;4.26;100.00
9774;BME280;4926;42.670;23.316;2023-11-21T04:06:24;94321.53;;;4.05;100.00
9774;BME280;4926;42.670;23.316;2023-11-21T04:08:52;94326.66;;;4.27;100.00
9774;BME280;4926;42.670;23.316;2023-11-21T04:11:19;94325.31;;;4.19;100.00
9774;BME280;4926;42.670;23.316;2023-11-21T04:13:49;94320.88;;;4.25;100.00
9774;BME280;4926;42.670;23.316;2023-11-21T04:16:18;94313.84;;;4.35;100.00
9774;BME280;4926;42.670;23.316;2023-11-21T04:18:45;94321.38;;;4.22;100.00
9774;BME280;4926;42.670;23.316;2023-11-21T04:21:12;94325.00;;;4.11;100.00
9774;BME280;4926;42.670;23.316;2023-11-21T04:23:40;94324.56;;;4.24;100.00
9774;BME280;4926;42.670;23.316;2023-11-21T04:26:07;94313.34;;;4.38;100.00
9774;BME280;4926;42.670;23.316;2023-11-21T04:28:34;94317.25;;;4.36;100.00
9774;BME280;4926;42.670;23.316;2023-11-21T04:31:01;94325.47;;;4.44;100.00
9774;BME280;4926;42.670;23.316;2023-11-21T04:33:28;94324.25;;;4.57;100.00
9774;BME280;4926;42.670;23.316;2023-11-21T04:35:54;94330.97;;;4.38;100.00
9774;BME280;4926;42.670;23.316;2023-11-21T04:38:21;94325.00;;;4.47;100.00
9774;BME280;4926;42.670;23.316;2023-11-21T04:40:49;94325.44;;;4.39;100.00
9774;BME280;4926;42.670;23.316;2023-11-21T04:43:16;94327.59;;;4.42;100.00
9774;BME280;4926;42.670;23.316;2023-11-21T04:45:43;94321.50;;;4.37;100.00
9774;BME280;4926;42.670;23.316;2023-11-21T04:48:10;94326.50;;;4.38;100.00
9774;BME280;4926;42.670;23.316;2023-11-21T04:50:37;94333.50;;;4.60;100.00
9774;BME280;4926;42.670;23.316;2023-11-21T04:53:07;94337.53;;;4.72;100.00
9774;BME280;4926;42.670;23.316;2023-11-21T04:55:34;94331.25;;;4.88;100.00
9774;BME280;4926;42.670;23.316;2023-11-21T04:58:02;94331.78;;;4.85;100.00
9774;BME280;4926;42.670;23.316;2023-11-21T05:00:32;94327.06;;;4.92;100.00
9774;BME280;4926;42.670;23.316;2023-11-21T05:02:59;94333.97;;;5.03;100.00
9774;BME280;4926;42.670;23.316;2023-11-21T05:05:26;94341.91;;;5.08;100.00
9774;BME280;4926;42.670;23.316;2023-11-21T05:07:55;94340.63;;;5.16;100.00
9774;BME280;4926;42.670;23.316;2023-11-21T05:10:25;94343.56;;;5.24;100.00
9774;BME280;4926;42.670;23.316;2023-11-21T05:12:51;94322.53;;;4.83;100.00
9774;BME280;4926;42.670;23.316;2023-11-21T05:15:20;94322.44;;;4.68;100.00
9774;BME280;4926;42.670;23.316;2023-11-21T05:17:48;94316.63;;;4.66;100.00
9774;BME280;4926;42.670;23.316;2023-11-21T05:20:17;94323.28;;;4.73;100.00
9774;BME280;4926;42.670;23.316;2023-11-21T05:22:50;94330.41;;;4.78;100.00
9774;BME280;4926;42.670;23.316;2023-11-21T05:25:18;94315.38;;;4.78;100.00
9774;BME280;4926;42.670;23.316;2023-11-21T05:27:48;94325.47;;;4.86;100.00
9774;BME280;4926;42.670;23.316;2023-11-21T05:30:15;94333.41;;;4.91;100.00
9774;BME280;4926;42.670;23.316;2023-11-21T05:32:43;94337.13;;;5.00;100.00
9774;BME280;4926;42.670;23.316;2023-11-21T05:35:12;94338.19;;;5.09;100.00
9774;BME280;4926;42.670;23.316;2023-11-21T05:37:41;94335.13;;;5.27;100.00
9774;BME280;4926;42.670;23.316;2023-11-21T05:40:09;94336.75;;;5.38;100.00
9774;BME280;4926;42.670;23.316;2023-11-21T05:42:38;94325.72;;;5.61;100.00
9774;BME280;4926;42.670;23.316;2023-11-21T05:45:06;94342.88;;;5.79;100.00
9774;BME280;4926;42.670;23.316;2023-11-21T05:47:37;94348.50;;;5.93;100.00
9774;BME280;4926;42.670;23.316;2023-11-21T05:50:07;94343.22;;;5.98;100.00
9774;BME280;4926;42.670;23.316;2023-11-21T05:52:40;94346.13;;;5.91;100.00
9774;BME280;4926;42.670;23.316;2023-11-21T05:55:08;94321.25;;;5.82;100.00
9774;BME280;4926;42.670;23.316;2023-11-21T05:57:39;94342.16;;;5.89;100.00
9774;BME280;4926;42.670;23.316;2023-11-21T06:00:13;94337.41;;;5.86;100.00
9774;BME280;4926;42.670;23.316;2023-11-21T06:02:45;94338.44;;;5.90;100.00
9774;BME280;4926;42.670;23.316;2023-11-21T06:05:17;94343.22;;;5.93;100.00
9774;BME280;4926;42.670;23.316;2023-11-21T06:07:44;94347.44;;;5.89;100.00
9774;BME280;4926;42.670;23.316;2023-11-21T06:10:11;94340.03;;;5.91;100.00
9774;BME280;4926;42.670;23.316;2023-11-21T06:12:40;94338.69;;;5.93;100.00
9774;BME280;4926;42.670;23.316;2023-11-21T06:15:09;94348.50;;;5.93;100.00
9774;BME280;4926;42.670;23.316;2023-11-21T06:17:39;94343.13;;;5.72;100.00
9774;BME280;4926;42.670;23.316;2023-11-21T06:20:08;94352.13;;;5.61;100.00
9774;BME280;4926;42.670;23.316;2023-11-21T06:22:38;94353.97;;;5.76;100.00
9774;BME280;4926;42.670;23.316;2023-11-21T06:25:08;94353.44;;;5.79;100.00
9774;BME280;4926;42.670;23.316;2023-11-21T06:27:38;94358.00;;;5.84;100.00
9774;BME280;4926;42.670;23.316;2023-11-21T06:30:06;94350.56;;;5.81;100.00
9774;BME280;4926;42.670;23.316;2023-11-21T06:32:35;94354.81;;;5.87;100.00
9774;BME280;4926;42.670;23.316;2023-11-21T06:35:02;94326.75;;;5.70;100.00
9774;BME280;4926;42.670;23.316;2023-11-21T06:37:30;94365.13;;;5.93;100.00
9774;BME280;4926;42.670;23.316;2023-11-21T06:39:59;94372.28;;;5.98;100.00
9774;BME280;4926;42.670;23.316;2023-11-21T06:42:27;94375.47;;;6.10;100.00
9774;BME280;4926;42.670;23.316;2023-11-21T06:44:56;94377.56;;;6.08;100.00
9774;BME280;4926;42.670;23.316;2023-11-21T06:47:24;94377.03;;;6.11;100.00
9774;BME280;4926;42.670;23.316;2023-11-21T06:49:55;94375.19;;;6.16;100.00
9774;BME280;4926;42.670;23.316;2023-11-21T06:52:25;94377.06;;;6.21;100.00
9774;BME280;4926;42.670;23.316;2023-11-21T06:54:52;94373.34;;;6.22;100.00
9774;BME280;4926;42.670;23.316;2023-11-21T06:57:23;94385.00;;;6.21;100.00
9774;BME280;4926;42.670;23.316;2023-11-21T06:59:54;94381.00;;;6.28;100.00
9774;BME280;4926;42.670;23.316;2023-11-21T07:02:22;94384.72;;;6.32;100.00
9774;BME280;4926;42.670;23.316;2023-11-21T07:04:49;94377.84;;;6.31;100.00
9774;BME280;4926;42.670;23.316;2023-11-21T07:07:22;94387.09;;;6.39;100.00
9774;BME280;4926;42.670;23.316;2023-11-21T07:09:49;94376.50;;;6.44;100.00
9774;BME280;4926;42.670;23.316;2023-11-21T07:12:17;94374.91;;;6.58;100.00
9774;BME280;4926;42.670;23.316;2023-11-21T07:14:45;94363.81;;;6.61;100.00
9774;BME280;4926;42.670;23.316;2023-11-21T07:17:12;94363.78;;;6.76;100.00
9774;BME280;4926;42.670;23.316;2023-11-21T07:19:39;94368.81;;;6.93;100.00
9774;BME280;4926;42.670;23.316;2023-11-21T07:22:06;94358.94;;;7.13;100.00
9774;BME280;4926;42.670;23.316;2023-11-21T07:24:34;94368.41;;;7.29;100.00
9774;BME280;4926;42.670;23.316;2023-11-21T07:27:03;94372.63;;;7.35;100.00
9774;BME280;4926;42.670;23.316;2023-11-21T07:29:30;94377.38;;;7.33;100.00
9774;BME280;4926;42.670;23.316;2023-11-21T07:32:00;94373.22;;;7.22;99.63
9774;BME280;4926;42.670;23.316;2023-11-21T07:34:27;94367.31;;;7.35;100.00
9774;BME280;4926;42.670;23.316;2023-11-21T07:36:59;94375.72;;;7.57;99.98
9774;BME280;4926;42.670;23.316;2023-11-21T07:39:28;94360.25;;;7.74;98.77
9774;BME280;4926;42.670;23.316;2023-11-21T07:41:55;94367.56;;;7.92;98.29
9774;BME280;4926;42.670;23.316;2023-11-21T07:44:25;94364.25;;;8.11;96.75
9774;BME280;4926;42.670;23.316;2023-11-21T07:46:52;94366.28;;;8.29;95.39
9774;BME280;4926;42.670;23.316;2023-11-21T07:49:24;94357.16;;;8.40;93.77
9774;BME280;4926;42.670;23.316;2023-11-21T07:51:52;94357.63;;;8.52;92.45
9774;BME280;4926;42.670;23.316;2023-11-21T07:54:18;94361.84;;;8.53;92.59
9774;BME280;4926;42.670;23.316;2023-11-21T07:56:46;94358.34;;;8.62;91.30
9774;BME280;4926;42.670;23.316;2023-11-21T07:59:13;94339.56;;;8.82;89.75
9774;BME280;4926;42.670;23.316;2023-11-21T08:01:40;94342.84;;;8.98;88.25
9774;BME280;4926;42.670;23.316;2023-11-21T08:04:08;94335.28;;;8.86;87.41
9774;BME280;4926;42.670;23.316;2023-11-21T08:06:36;94334.13;;;8.69;87.56
9774;BME280;4926;42.670;23.316;2023-11-21T08:09:03;94331.97;;;8.71;87.66
9774;BME280;4926;42.670;23.316;2023-11-21T08:11:30;94334.00;;;8.55;88.16
9774;BME280;4926;42.670;23.316;2023-11-21T08:13:58;94316.25;;;8.51;88.74
9774;BME280;4926;42.670;23.316;2023-11-21T08:16:25;94343.31;;;8.76;88.70
9774;BME280;4926;42.670;23.316;2023-11-21T08:18:52;94345.31;;;8.89;88.38
9774;BME280;4926;42.670;23.316;2023-11-21T08:21:20;94348.38;;;9.01;87.64
9774;BME280;4926;42.670;23.316;2023-11-21T08:23:50;94357.03;;;8.83;88.52
9774;BME280;4926;42.670;23.316;2023-11-21T08:26:19;94342.50;;;8.81;89.47
9774;BME280;4926;42.670;23.316;2023-11-21T08:28:46;94330.66;;;8.97;88.72
9774;BME280;4926;42.670;23.316;2023-11-21T08:31:17;94334.75;;;9.08;88.12
9774;BME280;4926;42.670;23.316;2023-11-21T08:33:49;94336.19;;;9.24;87.95
9774;BME280;4926;42.670;23.316;2023-11-21T08:36:16;94338.53;;;9.49;86.32
9774;BME280;4926;42.670;23.316;2023-11-21T08:38:43;94333.09;;;9.59;84.99
9774;BME280;4926;42.670;23.316;2023-11-21T08:41:11;94320.53;;;9.83;83.91
9774;BME280;4926;42.670;23.316;2023-11-21T08:43:40;94329.09;;;9.80;82.77
9774;BME280;4926;42.670;23.316;2023-11-21T08:46:07;94337.28;;;9.42;82.98
9774;BME280;4926;42.670;23.316;2023-11-21T08:48:36;94325.38;;;9.39;84.17
9774;BME280;4926;42.670;23.316;2023-11-21T08:51:03;94327.34;;;9.52;84.12
9774;BME280;4926;42.670;23.316;2023-11-21T08:53:30;94335.81;;;9.54;84.00
9774;BME280;4926;42.670;23.316;2023-11-21T08:55:57;94316.56;;;9.62;82.99
9774;BME280;4926;42.670;23.316;2023-11-21T08:58:25;94312.63;;;9.60;83.08
9774;BME280;4926;42.670;23.316;2023-11-21T09:00:55;94307.59;;;9.58;82.91
9774;BME280;4926;42.670;23.316;2023-11-21T09:03:21;94296.09;;;9.63;83.18
9774;BME280;4926;42.670;23.316;2023-11-21T09:05:48;94301.50;;;9.76;82.27
9774;BME280;4926;42.670;23.316;2023-11-21T09:08:17;94286.94;;;9.74;81.45
9774;BME280;4926;42.670;23.316;2023-11-21T09:10:43;94274.16;;;9.76;81.35
9774;BME280;4926;42.670;23.316;2023-11-21T09:13:12;94271.69;;;9.79;81.48
9774;BME280;4926;42.670;23.316;2023-11-21T09:15:43;94240.81;;;9.65;80.88
9774;BME280;4926;42.670;23.316;2023-11-21T09:18:14;94257.75;;;9.87;81.00
9774;BME280;4926;42.670;23.316;2023-11-21T09:20:42;94254.16;;;9.78;80.74
9774;BME280;4926;42.670;23.316;2023-11-21T09:23:09;94268.69;;;9.67;80.96
9774;BME280;4926;42.670;23.316;2023-11-21T09:25:36;94256.69;;;9.70;81.73
9774;BME280;4926;42.670;23.316;2023-11-21T09:28:03;94251.91;;;9.85;81.55
9774;BME280;4926;42.670;23.316;2023-11-21T09:30:33;94237.69;;;9.76;81.59
9774;BME280;4926;42.670;23.316;2023-11-21T09:33:01;94231.69;;;9.52;82.34
9774;BME280;4926;42.670;23.316;2023-11-21T09:35:31;94224.56;;;9.66;83.02
9774;BME280;4926;42.670;23.316;2023-11-21T09:37:59;94204.31;;;9.70;81.10
9774;BME280;4926;42.670;23.316;2023-11-21T09:40:27;94208.44;;;9.44;82.41
9774;BME280;4926;42.670;23.316;2023-11-21T09:42:57;94214.97;;;9.33;83.53
9774;BME280;4926;42.670;23.316;2023-11-21T09:45:26;94207.50;;;9.35;84.13
9774;BME280;4926;42.670;23.316;2023-11-21T09:47:54;94209.34;;;9.35;83.18
9774;BME280;4926;42.670;23.316;2023-11-21T09:50:24;94185.03;;;9.46;83.17
9774;BME280;4926;42.670;23.316;2023-11-21T09:52:57;94178.41;;;9.44;82.17
9774;BME280;4926;42.670;23.316;2023-11-21T09:55:27;94175.97;;;9.47;81.32
9774;BME280;4926;42.670;23.316;2023-11-21T09:57:56;94173.59;;;9.46;81.68
9774;BME280;4926;42.670;23.316;2023-11-21T10:00:23;94179.84;;;9.36;82.80
9774;BME280;4926;42.670;23.316;2023-11-21T10:02:52;94169.72;;;9.57;83.09
9774;BME280;4926;42.670;23.316;2023-11-21T10:05:20;94173.81;;;9.81;82.65
9774;BME280;4926;42.670;23.316;2023-11-21T10:07:55;94169.84;;;9.97;81.52
9774;BME280;4926;42.670;23.316;2023-11-21T10:10:23;94171.09;;;10.19;80.42
9774;BME280;4926;42.670;23.316;2023-11-21T10:12:55;94149.25;;;10.35;80.21
9774;BME280;4926;42.670;23.316;2023-11-21T10:15:23;94144.44;;;10.37;80.60
9774;BME280;4926;42.670;23.316;2023-11-21T10:17:52;94145.91;;;10.57;79.82
9774;BME280;4926;42.670;23.316;2023-11-21T10:20:19;94138.63;;;10.76;78.23
9774;BME280;4926;42.670;23.316;2023-11-21T10:22:46;94132.97;;;10.91;77.26
9774;BME280;4926;42.670;23.316;2023-11-21T10:25:15;94127.91;;;11.03;76.46
9774;BME280;4926;42.670;23.316;2023-11-21T10:27:47;94118.19;;;11.20;75.19
9774;BME280;4926;42.670;23.316;2023-11-21T10:30:16;94117.47;;;10.93;75.04
9774;BME280;4926;42.670;23.316;2023-11-21T10:32:44;94119.22;;;10.97;76.01
9774;BME280;4926;42.670;23.316;2023-11-21T10:35:12;94116.06;;;11.09;75.99
9774;BME280;4926;42.670;23.316;2023-11-21T10:37:39;94109.56;;;11.01;75.52
9774;BME280;4926;42.670;23.316;2023-11-21T10:40:07;94106.22;;;10.96;76.50
9774;BME280;4926;42.670;23.316;2023-11-21T10:42:37;94107.84;;;11.19;76.48
9774;BME280;4926;42.670;23.316;2023-11-21T10:45:04;94099.91;;;11.27;75.04
9774;BME280;4926;42.670;23.316;2023-11-21T10:47:38;94101.53;;;11.37;74.52
9774;BME280;4926;42.670;23.316;2023-11-21T10:50:05;94099.72;;;11.46;74.01
9774;BME280;4926;42.670;23.316;2023-11-21T10:52:36;94101.31;;;11.47;73.42
9774;BME280;4926;42.670;23.316;2023-11-21T10:55:16;94094.28;;;11.51;73.21
9774;BME280;4926;42.670;23.316;2023-11-21T10:57:45;94091.78;;;11.55;72.72
9774;BME280;4926;42.670;23.316;2023-11-21T11:00:18;94075.94;;;11.50;72.15
9774;BME280;4926;42.670;23.316;2023-11-21T11:02:48;94081.19;;;11.41;72.15
9774;BME280;4926;42.670;23.316;2023-11-21T11:05:19;94082.00;;;11.42;72.13
9774;BME280;4926;42.670;23.316;2023-11-21T11:07:50;94078.91;;;11.48;71.56
9774;BME280;4926;42.670;23.316;2023-11-21T11:10:20;94069.34;;;11.47;71.53
9774;BME280;4926;42.670;23.316;2023-11-21T11:12:53;94066.56;;;11.52;70.39
9774;BME280;4926;42.670;23.316;2023-11-21T11:15:21;94060.72;;;11.50;70.01
9774;BME280;4926;42.670;23.316;2023-11-21T11:17:48;94057.88;;;11.47;70.21
9774;BME280;4926;42.670;23.316;2023-11-21T11:20:20;94054.59;;;11.50;69.52
9774;BME280;4926;42.670;23.316;2023-11-21T11:22:56;94044.00;;;11.58;69.26
9774;BME280;4926;42.670;23.316;2023-11-21T11:25:38;94028.38;;;11.65;68.68
9774;BME280;4926;42.670;23.316;2023-11-21T11:28:12;94024.38;;;11.76;67.59
9774;BME280;4926;42.670;23.316;2023-11-21T11:30:49;94024.16;;;11.64;67.95
9774;BME280;4926;42.670;23.316;2023-11-21T11:33:27;94033.66;;;11.35;69.37
9774;BME280;4926;42.670;23.316;2023-11-21T11:36:01;94037.00;;;11.40;70.08
9774;BME280;4926;42.670;23.316;2023-11-21T11:38:35;94036.56;;;11.47;70.24
9774;BME280;4926;42.670;23.316;2023-11-21T11:41:06;94029.66;;;11.46;69.39
9774;BME280;4926;42.670;23.316;2023-11-21T11:43:36;94025.09;;;11.46;69.70
9774;BME280;4926;42.670;23.316;2023-11-21T11:46:11;94040.63;;;11.22;70.36
9774;BME280;4926;42.670;23.316;2023-11-21T11:48:40;94054.31;;;11.07;71.39
9774;BME280;4926;42.670;23.316;2023-11-21T11:51:10;94057.56;;;11.04;71.82
9774;BME280;4926;42.670;23.316;2023-11-21T11:53:40;94053.69;;;11.10;72.90
9774;BME280;4926;42.670;23.316;2023-11-21T11:56:23;94059.66;;;11.07;73.66
9774;BME280;4926;42.670;23.316;2023-11-21T11:58:53;94058.53;;;11.08;74.06
9774;BME280;4926;42.670;23.316;2023-11-21T12:01:21;94054.31;;;11.07;74.97
9774;BME280;4926;42.670;23.316;2023-11-21T12:06:51;94062.75;;;10.87;77.34
9774;BME280;4926;42.670;23.316;2023-11-21T12:09:21;94062.84;;;10.82;77.07
9774;BME280;4926;42.670;23.316;2023-11-21T12:11:49;94066.75;;;10.76;78.32
9774;BME280;4926;42.670;23.316;2023-11-21T12:14:18;94075.91;;;10.70;79.73
9774;BME280;4926;42.670;23.316;2023-11-21T12:16:45;94079.09;;;10.58;80.54
9774;BME280;4926;42.670;23.316;2023-11-21T12:19:12;94084.97;;;10.55;81.56
9774;BME280;4926;42.670;23.316;2023-11-21T12:21:45;94079.97;;;10.54;81.32
9774;BME280;4926;42.670;23.316;2023-11-21T12:24:14;94073.88;;;10.26;82.54
9774;BME280;4926;42.670;23.316;2023-11-21T12:26:41;94082.66;;;10.27;83.36
9774;BME280;4926;42.670;23.316;2023-11-21T12:29:09;94073.97;;;10.35;84.04
9774;BME280;4926;42.670;23.316;2023-11-21T12:31:37;94076.13;;;10.46;85.08
9774;BME280;4926;42.670;23.316;2023-11-21T12:34:05;94079.06;;;10.45;85.05
9774;BME280;4926;42.670;23.316;2023-11-21T12:36:32;94084.22;;;10.41;85.31
9774;BME280;4926;42.670;23.316;2023-11-21T12:39:00;94072.22;;;10.30;87.75
9774;BME280;4926;42.670;23.316;2023-11-21T12:41:28;94070.41;;;10.26;86.69
9774;BME280;4926;42.670;23.316;2023-11-21T12:43:56;94082.38;;;10.15;87.23
9774;BME280;4926;42.670;23.316;2023-11-21T12:46:23;94069.06;;;10.15;88.67
9774;BME280;4926;42.670;23.316;2023-11-21T12:48:52;94062.81;;;10.05;89.68
9774;BME280;4926;42.670;23.316;2023-11-21T12:51:21;94070.19;;;9.95;91.14
9774;BME280;4926;42.670;23.316;2023-11-21T12:53:49;94051.94;;;9.88;91.96
9774;BME280;4926;42.670;23.316;2023-11-21T12:56:16;94053.25;;;10.04;92.08
9774;BME280;4926;42.670;23.316;2023-11-21T12:58:45;94049.16;;;10.12;91.36
9774;BME280;4926;42.670;23.316;2023-11-21T13:01:17;94048.25;;;10.17;90.87
9774;BME280;4926;42.670;23.316;2023-11-21T13:03:47;94044.38;;;9.95;91.34
9774;BME280;4926;42.670;23.316;2023-11-21T13:06:20;94039.25;;;9.99;91.69
9774;BME280;4926;42.670;23.316;2023-11-21T13:08:50;94045.19;;;10.09;92.04
9774;BME280;4926;42.670;23.316;2023-11-21T13:11:17;94040.28;;;10.17;92.25
9774;BME280;4926;42.670;23.316;2023-11-21T13:13:47;94040.47;;;10.20;92.07
9774;BME280;4926;42.670;23.316;2023-11-21T13:16:18;94039.09;;;10.23;91.56
9774;BME280;4926;42.670;23.316;2023-11-21T13:18:46;94031.44;;;10.21;90.45
9774;BME280;4926;42.670;23.316;2023-11-21T13:21:12;94046.19;;;10.13;91.98
9774;BME280;4926;42.670;23.316;2023-11-21T13:23:42;94036.34;;;10.00;94.08